LFOH/LEH METAR and TAF weather

Enter ICAO airport designator
Station Type Date Time Source
LFOH METAR 2020/02/27 13:30 UTC NOAA

LFOH 271330Z AUTO 34025G36KT 9999 BKN018 OVC027 06/03 Q1003 NOSIG


Station Type Date Time Source
LFOH Decoded METAR 2020/02/27 13:30 UTC NOAA

La Heve, France (LFOH) 49-31N 000-04E 103M
Feb 27, 2020 - 08:30 AM EST / 2020.02.27 1330 UTC
Wind: from the NNW (340 degrees) at 29 MPH (25 KT) gusting to 41 MPH (36 KT):0
Visibility: greater than 7 mile(s):0
Sky conditions: overcast
Temperature: 42 F (6 C)
Dew Point: 37 F (3 C)
Relative Humidity: 81%
Pressure (altimeter): 29.62 in. Hg (1003 hPa)
ob: LFOH 271330Z AUTO 34025G36KT 9999 BKN018 OVC027 06/03 Q1003 NOSIG
cycle: 13

Station Type Date Time Source
LFOH TAF 2020/02/27 12:21 UTC NOAA

TAF LFOH 271100Z 2712/2812 34030G45KT 9999 OVC007
BECMG 2712/2714 33020G35KT BKN017
BECMG 2716/2718 32015G25KT
BECMG 2718/2720 29008KT
BECMG 2802/2805 17013KT
BECMG 2809/2811 17020G30KT RA OVC012

Example: see airport list